createdAt,value
2018-09-12T00:01:39.057Z,32.63
2018-09-12T00:04:07.553Z,29.87
2018-09-12T00:06:36.046Z,29.40
2018-09-12T00:09:06.854Z,39.77
2018-09-12T00:11:35.337Z,29.00
2018-09-12T00:14:03.885Z,28.83
2018-09-12T00:16:32.342Z,32.03
2018-09-12T00:19:00.987Z,31.30
2018-09-12T00:21:29.485Z,33.43
2018-09-12T00:23:57.962Z,32.40
2018-09-12T00:26:26.582Z,36.93
2018-09-12T00:28:55.179Z,38.87
2018-09-12T00:31:23.654Z,32.73
2018-09-12T00:33:52.162Z,43.83
2018-09-12T00:36:20.673Z,36.03
2018-09-12T00:38:49.158Z,35.53
2018-09-12T00:41:17.613Z,36.60
2018-09-12T00:43:46.129Z,35.27
2018-09-12T00:46:14.618Z,38.03
2018-09-12T00:48:43.148Z,34.97
2018-09-12T00:51:11.625Z,36.50
2018-09-12T00:53:40.156Z,33.80
2018-09-12T00:56:08.653Z,33.40
2018-09-12T00:58:37.140Z,36.23
2018-09-12T01:01:06.262Z,36.63
2018-09-12T01:03:34.890Z,33.40
2018-09-12T01:06:03.389Z,37.67
2018-09-12T01:08:31.950Z,33.60
2018-09-12T01:11:00.467Z,38.20
2018-09-12T01:13:28.920Z,38.80
2018-09-12T01:15:57.405Z,34.17
2018-09-12T01:18:25.921Z,38.30
2018-09-12T01:20:54.425Z,34.37
2018-09-12T01:23:22.923Z,35.10
2018-09-12T01:25:51.397Z,33.23
2018-09-12T01:28:19.903Z,38.87
2018-09-12T01:30:48.386Z,38.17
2018-09-12T01:33:16.929Z,38.60
2018-09-12T01:35:45.466Z,36.23
2018-09-12T01:38:13.949Z,33.13
2018-09-12T01:40:42.441Z,37.90
2018-09-12T01:43:10.958Z,39.70
2018-09-12T01:45:39.424Z,31.00
2018-09-12T01:48:07.966Z,35.37
2018-09-12T01:50:36.470Z,29.50
2018-09-12T01:53:05.061Z,37.27
2018-09-12T01:55:33.565Z,38.80
2018-09-12T01:58:02.052Z,32.47
2018-09-12T02:00:35.829Z,35.27
2018-09-12T02:03:04.342Z,35.90
2018-09-12T02:05:32.878Z,37.03
2018-09-12T02:08:01.358Z,38.70
2018-09-12T02:10:29.920Z,49.70
2018-09-12T02:12:58.470Z,35.83
2018-09-12T02:15:26.989Z,39.50
2018-09-12T02:17:55.486Z,40.37
2018-09-12T02:20:23.997Z,39.50
2018-09-12T02:22:52.501Z,42.20
2018-09-12T02:25:21.297Z,38.00
2018-09-12T02:27:49.773Z,49.73
2018-09-12T02:30:18.281Z,37.97
2018-09-12T02:32:46.776Z,41.10
2018-09-12T02:35:15.257Z,45.57
2018-09-12T02:37:43.769Z,41.57
2018-09-12T02:40:12.240Z,42.77
2018-09-12T02:42:40.727Z,45.40
2018-09-12T02:45:09.316Z,48.33
2018-09-12T02:47:39.045Z,47.00
2018-09-12T02:50:12.560Z,44.90
2018-09-12T02:52:41.052Z,46.10
2018-09-12T02:55:11.193Z,46.90
2018-09-12T02:57:39.685Z,48.27
2018-09-12T03:00:08.656Z,45.80
2018-09-12T03:02:37.277Z,52.70
2018-09-12T03:05:05.950Z,47.90
2018-09-12T03:07:34.510Z,49.10
2018-09-12T03:10:03.051Z,48.10
2018-09-12T03:12:31.520Z,49.60
2018-09-12T03:15:00.002Z,49.17
2018-09-12T03:17:28.502Z,48.93
2018-09-12T03:19:56.998Z,48.30
2018-09-12T03:22:25.493Z,48.83
2018-09-12T03:24:53.985Z,52.67
2018-09-12T03:27:22.605Z,35.27
2018-09-12T03:29:51.093Z,19.80
2018-09-12T03:32:19.599Z,9.43
2018-09-12T03:34:48.078Z,7.07
2018-09-12T03:37:16.567Z,5.03
2018-09-12T03:39:45.041Z,4.90
2018-09-12T03:42:13.577Z,4.50
2018-09-12T03:44:42.029Z,4.07
2018-09-12T03:47:10.508Z,2.63
2018-09-12T03:49:38.998Z,3.33
2018-09-12T03:52:07.457Z,5.13
2018-09-12T03:54:35.991Z,4.40
2018-09-12T03:57:04.558Z,4.40
2018-09-12T03:59:33.057Z,6.23
2018-09-12T04:02:01.501Z,9.10
2018-09-12T04:04:29.973Z,8.97
2018-09-12T04:06:58.590Z,7.53
2018-09-12T04:09:27.130Z,6.10
2018-09-12T04:11:55.581Z,4.10
2018-09-12T04:14:24.235Z,4.60
2018-09-12T04:16:52.890Z,3.00
2018-09-12T04:19:21.982Z,6.37
2018-09-12T04:21:50.668Z,4.10
2018-09-12T04:24:19.179Z,3.37
2018-09-12T04:26:47.747Z,3.87
2018-09-12T04:29:16.177Z,3.10
2018-09-12T04:31:44.716Z,3.97
2018-09-12T04:34:13.390Z,4.67
2018-09-12T04:36:41.885Z,4.03
2018-09-12T04:39:11.525Z,2.97
2018-09-12T04:41:40.095Z,3.20
2018-09-12T04:44:08.624Z,3.57
2018-09-12T04:46:37.480Z,3.90
2018-09-12T04:49:06.190Z,3.10
2018-09-12T04:51:34.686Z,3.10
2018-09-12T04:54:03.141Z,3.97
2018-09-12T04:56:31.620Z,4.00
2018-09-12T04:59:00.125Z,5.00
2018-09-12T05:01:28.625Z,5.80
2018-09-12T05:03:57.098Z,6.33
2018-09-12T05:06:25.625Z,6.03
2018-09-12T05:08:54.098Z,4.60
2018-09-12T05:11:22.601Z,6.80
2018-09-12T05:13:51.144Z,6.80
2018-09-12T05:16:19.746Z,7.30
2018-09-12T05:18:48.225Z,11.50
2018-09-12T05:21:16.701Z,6.47
2018-09-12T05:23:45.230Z,8.43
2018-09-12T05:26:13.717Z,11.47
2018-09-12T05:28:42.501Z,8.63
2018-09-12T05:31:10.984Z,8.13
2018-09-12T05:33:39.420Z,11.97
2018-09-12T05:36:08.027Z,12.13
2018-09-12T05:38:36.465Z,15.87
2018-09-12T05:41:04.961Z,10.80
2018-09-12T05:43:33.429Z,11.30
2018-09-12T05:46:02.019Z,16.90
2018-09-12T05:48:30.505Z,12.37
2018-09-12T05:50:59.004Z,13.10
2018-09-12T05:53:27.449Z,13.03
2018-09-12T05:55:55.913Z,11.93
2018-09-12T05:58:24.401Z,13.73
2018-09-12T06:00:52.889Z,13.37
2018-09-12T06:03:21.385Z,15.10
2018-09-12T06:05:49.837Z,13.67
2018-09-12T06:08:18.453Z,14.40
2018-09-12T06:10:46.897Z,14.90
2018-09-12T06:13:15.447Z,15.70
2018-09-12T06:15:44.057Z,12.77
2018-09-12T06:18:12.602Z,16.70
2018-09-12T06:20:41.196Z,16.70
2018-09-12T06:23:09.728Z,12.97
2018-09-12T06:25:38.201Z,12.80
2018-09-12T06:28:06.816Z,14.93
2018-09-12T06:30:35.512Z,21.07
2018-09-12T06:33:03.965Z,17.13
2018-09-12T06:35:32.529Z,12.30
2018-09-12T06:38:01.009Z,11.03
2018-09-12T06:40:29.573Z,17.23
2018-09-12T06:42:58.100Z,11.93
2018-09-12T06:45:26.606Z,15.60
2018-09-12T06:47:55.087Z,18.73
2018-09-12T06:50:23.596Z,15.60
2018-09-12T06:52:52.049Z,15.47
2018-09-12T06:55:20.541Z,18.00
2018-09-12T06:57:49.029Z,21.50
2018-09-12T07:00:17.553Z,20.07
2018-09-12T07:02:46.025Z,20.87
2018-09-12T07:05:14.837Z,17.73
2018-09-12T07:07:43.303Z,16.83
2018-09-12T07:10:11.800Z,19.90
2018-09-12T07:12:40.314Z,20.30
2018-09-12T07:15:08.932Z,22.70
2018-09-12T07:17:37.465Z,23.27
2018-09-12T07:20:05.974Z,21.07
2018-09-12T07:22:34.483Z,13.30
2018-09-12T07:25:02.965Z,13.13
2018-09-12T07:27:31.692Z,14.63
2018-09-12T07:30:00.215Z,14.00
2018-09-12T07:32:28.688Z,15.90
2018-09-12T07:34:57.244Z,16.80
2018-09-12T07:37:25.761Z,15.70
2018-09-12T07:39:54.264Z,17.10
2018-09-12T07:42:22.745Z,17.40
2018-09-12T07:44:51.358Z,17.93
2018-09-12T07:47:19.907Z,15.93
2018-09-12T07:49:48.386Z,13.20
2018-09-12T07:52:16.881Z,14.50
2018-09-12T07:54:45.421Z,13.67
2018-09-12T07:57:13.885Z,13.50
2018-09-12T07:59:42.381Z,17.47
2018-09-12T08:02:10.831Z,17.07
2018-09-12T08:04:39.324Z,20.07
2018-09-12T08:07:07.834Z,18.40
2018-09-12T08:09:36.321Z,18.30
2018-09-12T08:12:04.856Z,17.60
2018-09-12T08:14:33.354Z,18.93
2018-09-12T08:17:01.889Z,17.03
2018-09-12T08:19:30.404Z,17.10
2018-09-12T08:21:58.905Z,14.30
2018-09-12T08:24:27.372Z,14.83
2018-09-12T08:26:55.858Z,13.90
2018-09-12T08:29:24.341Z,14.23
2018-09-12T08:31:52.851Z,10.23
2018-09-12T08:34:21.428Z,10.50
2018-09-12T08:36:49.862Z,10.10
2018-09-12T08:39:18.517Z,8.17
2018-09-12T08:41:47.017Z,6.10
2018-09-12T08:44:15.489Z,5.90
2018-09-12T08:46:44.122Z,7.57
2018-09-12T08:49:12.642Z,7.97
2018-09-12T08:51:41.527Z,7.53
2018-09-12T08:54:10.049Z,6.00
2018-09-12T08:56:38.567Z,7.43
2018-09-12T08:59:07.090Z,9.17
2018-09-12T09:01:35.648Z,7.57
2018-09-12T09:04:04.227Z,9.33
2018-09-12T09:06:32.750Z,11.77
2018-09-12T09:09:01.625Z,17.20
2018-09-12T09:11:30.131Z,16.17
2018-09-12T09:13:58.641Z,19.33
2018-09-12T09:16:27.341Z,16.87
2018-09-12T09:18:55.888Z,18.30
2018-09-12T09:21:24.393Z,17.27
2018-09-12T09:23:53.116Z,18.97
2018-09-12T09:26:21.639Z,7.57
2018-09-12T09:28:50.127Z,12.13
2018-09-12T09:31:18.677Z,18.63
2018-09-12T09:33:47.182Z,20.43
2018-09-12T09:36:15.652Z,18.47
2018-09-12T09:38:44.134Z,16.33
2018-09-12T09:41:12.617Z,12.97
2018-09-12T09:43:41.077Z,16.10
2018-09-12T09:46:09.638Z,13.33
2018-09-12T09:48:38.158Z,11.50
2018-09-12T09:51:06.650Z,11.60
2018-09-12T09:53:35.315Z,19.63
2018-09-12T09:56:04.283Z,13.00
2018-09-12T09:58:32.873Z,12.77
2018-09-12T10:01:06.833Z,12.50
2018-09-12T10:03:40.571Z,12.20
2018-09-12T10:06:14.386Z,9.67
2018-09-12T10:08:48.074Z,14.73
2018-09-12T10:11:16.636Z,11.97
2018-09-12T10:13:45.261Z,12.43
2018-09-12T10:16:13.759Z,8.83
2018-09-12T10:18:42.280Z,17.67
2018-09-12T10:21:10.741Z,13.63
2018-09-12T10:23:39.221Z,18.97
2018-09-12T10:26:07.709Z,9.77
2018-09-12T10:28:36.210Z,13.20
2018-09-12T10:31:04.692Z,18.23
2018-09-12T10:33:33.149Z,12.90
2018-09-12T10:36:01.654Z,8.97
2018-09-12T10:38:30.198Z,11.33
2018-09-12T10:40:58.812Z,8.87
2018-09-12T10:43:27.280Z,8.87
2018-09-12T10:45:55.728Z,11.27
2018-09-12T10:48:24.205Z,11.43
2018-09-12T10:50:52.701Z,11.30
2018-09-12T10:53:21.186Z,10.83
2018-09-12T10:55:49.795Z,11.97
2018-09-12T10:58:18.349Z,11.50
2018-09-12T11:00:46.846Z,10.20
2018-09-12T11:03:15.365Z,14.20
2018-09-12T11:05:43.810Z,11.27
2018-09-12T11:08:12.319Z,19.10
2018-09-12T11:10:40.805Z,8.50
2018-09-12T11:13:09.345Z,9.60
2018-09-12T11:15:37.854Z,11.20
2018-09-12T11:18:06.521Z,14.13
2018-09-12T11:20:35.033Z,14.37
2018-09-12T11:23:03.498Z,12.43
2018-09-12T11:25:31.973Z,12.90
2018-09-12T11:28:00.801Z,16.33
2018-09-12T11:30:29.270Z,9.10
2018-09-12T11:32:57.797Z,12.80
2018-09-12T11:35:26.326Z,10.83
2018-09-12T11:37:54.839Z,15.90
2018-09-12T11:40:23.353Z,14.03
2018-09-12T11:42:51.850Z,16.30
2018-09-12T11:45:20.795Z,9.80
2018-09-12T11:47:49.306Z,11.77
2018-09-12T11:50:17.809Z,8.13
2018-09-12T11:52:46.297Z,11.13
2018-09-12T11:55:14.790Z,11.83
2018-09-12T11:57:43.262Z,8.37
2018-09-12T12:00:11.774Z,10.50
2018-09-12T12:02:40.334Z,8.97
2018-09-12T12:05:08.860Z,6.90
2018-09-12T12:07:37.649Z,7.30
2018-09-12T12:10:06.187Z,11.50
2018-09-12T12:12:34.714Z,6.27
2018-09-12T12:15:03.215Z,8.30
2018-09-12T12:17:31.706Z,8.27
2018-09-12T12:20:00.279Z,6.70
2018-09-12T12:22:28.738Z,6.23
2018-09-12T12:24:57.194Z,10.53
2018-09-12T12:27:25.705Z,9.03
2018-09-12T12:29:54.183Z,5.23
2018-09-12T12:32:22.677Z,12.87
2018-09-12T12:34:51.169Z,6.70
2018-09-12T12:37:19.638Z,6.73
2018-09-12T12:39:48.122Z,9.33
2018-09-12T12:42:16.685Z,7.73
2018-09-12T12:44:45.221Z,7.77
2018-09-12T12:47:13.760Z,6.30
2018-09-12T12:49:42.297Z,7.30
2018-09-12T12:52:10.857Z,5.60
2018-09-12T12:54:39.493Z,6.63
2018-09-12T12:57:07.998Z,5.93
2018-09-12T12:59:36.622Z,8.60
2018-09-12T13:02:05.096Z,7.80
2018-09-12T13:04:33.614Z,9.00
2018-09-12T13:07:02.100Z,6.33
2018-09-12T13:09:30.623Z,8.83
2018-09-12T13:11:59.199Z,4.43
2018-09-12T13:14:27.703Z,4.80
2018-09-12T13:16:56.209Z,7.07
2018-09-12T13:19:24.855Z,6.27
2018-09-12T13:21:53.540Z,5.50
2018-09-12T13:24:21.856Z,5.47
2018-09-12T13:26:50.402Z,7.70
2018-09-12T13:29:18.926Z,6.43
2018-09-12T13:31:47.397Z,4.13
2018-09-12T13:34:15.939Z,3.57
2018-09-12T13:36:44.480Z,3.83
2018-09-12T13:39:15.854Z,7.13
2018-09-12T13:41:44.434Z,4.13
2018-09-12T13:44:12.958Z,3.27
2018-09-12T13:46:41.466Z,7.00
2018-09-12T13:49:09.945Z,3.67
2018-09-12T13:51:38.538Z,3.03
2018-09-12T13:54:07.052Z,3.57
2018-09-12T13:56:35.793Z,3.73
2018-09-12T13:59:04.284Z,5.30
2018-09-12T14:01:32.781Z,3.97
2018-09-12T14:04:01.290Z,2.93
2018-09-12T14:06:29.814Z,2.83
2018-09-12T14:08:58.437Z,4.60
2018-09-12T14:11:26.865Z,2.30
2018-09-12T14:13:55.398Z,5.63
2018-09-12T14:16:23.927Z,2.20
2018-09-12T14:18:52.417Z,1.67
2018-09-12T14:21:20.886Z,4.53
2018-09-12T14:23:49.371Z,2.50
2018-09-12T14:26:17.909Z,4.80
2018-09-12T14:28:46.390Z,3.00
2018-09-12T14:31:14.868Z,8.93
2018-09-12T14:33:43.358Z,4.00
2018-09-12T14:36:11.839Z,4.93
2018-09-12T14:38:40.309Z,3.83
2018-09-12T14:41:08.830Z,7.63
2018-09-12T14:43:37.309Z,5.53
2018-09-12T14:46:05.769Z,10.33
2018-09-12T14:48:34.299Z,6.63
2018-09-12T14:51:02.852Z,3.97
2018-09-12T14:53:31.401Z,7.70
2018-09-12T14:55:59.917Z,5.33
2018-09-12T14:58:28.451Z,8.80
2018-09-12T15:00:56.908Z,9.93
2018-09-12T15:03:25.416Z,5.83
2018-09-12T15:05:53.932Z,3.87
2018-09-12T15:08:22.418Z,5.33
2018-09-12T15:10:50.904Z,5.67
2018-09-12T15:13:19.390Z,4.70
2018-09-12T15:15:47.849Z,2.50
2018-09-12T15:18:16.324Z,2.00
2018-09-12T15:20:44.829Z,3.30
2018-09-12T15:23:13.313Z,2.77
2018-09-12T15:25:41.825Z,1.10
2018-09-12T15:28:10.305Z,1.37
2018-09-12T15:30:38.938Z,4.30
2018-09-12T15:33:07.487Z,1.10
2018-09-12T15:35:35.969Z,1.40
2018-09-12T15:38:04.469Z,1.20
2018-09-12T15:40:33.022Z,3.90
2018-09-12T15:43:01.517Z,1.60
2018-09-12T15:45:30.045Z,1.30
2018-09-12T15:47:58.566Z,3.60
2018-09-12T15:50:28.005Z,2.67
2018-09-12T15:52:56.616Z,3.10
2018-09-12T15:55:25.128Z,2.30
2018-09-12T15:57:53.696Z,3.33
2018-09-12T16:00:22.215Z,2.90
2018-09-12T16:02:50.812Z,4.33
2018-09-12T16:05:19.281Z,7.33
2018-09-12T16:07:47.810Z,2.40
2018-09-12T16:10:16.297Z,2.30
2018-09-12T16:12:44.837Z,8.63
2018-09-12T16:15:13.358Z,4.63
2018-09-12T16:17:41.897Z,2.70
2018-09-12T16:20:10.374Z,2.17
2018-09-12T16:22:38.921Z,2.33
2018-09-12T16:25:07.641Z,2.90
2018-09-12T16:27:36.128Z,1.73
2018-09-12T16:30:04.969Z,1.57
2018-09-12T16:32:33.459Z,2.90
2018-09-12T16:35:02.446Z,4.20
2018-09-12T16:37:30.925Z,2.07
2018-09-12T16:39:59.674Z,3.20
2018-09-12T16:42:28.141Z,2.93
2018-09-12T16:44:56.617Z,3.37
2018-09-12T16:47:25.134Z,5.73
2018-09-12T16:49:53.639Z,13.63
2018-09-12T16:52:22.142Z,13.10
2018-09-12T16:54:51.135Z,6.30
2018-09-12T16:57:19.253Z,9.00
2018-09-12T16:59:47.749Z,7.43
2018-09-12T17:02:16.289Z,5.50
2018-09-12T17:07:47.631Z,6.23
2018-09-12T17:10:16.097Z,8.77
2018-09-12T17:12:44.726Z,5.67
2018-09-12T17:15:13.383Z,2.53
2018-09-12T17:17:41.873Z,8.23
2018-09-12T17:20:10.343Z,4.40
2018-09-12T17:22:38.882Z,5.03
2018-09-12T17:25:07.567Z,6.20
2018-09-12T17:27:36.045Z,3.83
2018-09-12T17:30:04.581Z,3.43
2018-09-12T17:32:33.083Z,3.40
2018-09-12T17:35:01.713Z,4.53
2018-09-12T17:37:30.177Z,2.30
2018-09-12T17:39:58.673Z,3.63
2018-09-12T17:42:27.175Z,2.20
2018-09-12T17:44:55.771Z,5.47
2018-09-12T17:47:24.314Z,3.03
2018-09-12T17:49:52.801Z,3.50
2018-09-12T17:52:21.366Z,5.50
2018-09-12T17:54:49.930Z,5.07
2018-09-12T17:57:18.430Z,4.97
2018-09-12T17:59:47.042Z,5.33
2018-09-12T18:02:15.619Z,6.73
2018-09-12T18:04:44.165Z,3.60
2018-09-12T18:07:12.729Z,3.47
2018-09-12T18:09:41.230Z,2.70
2018-09-12T18:12:09.725Z,3.07
2018-09-12T18:14:38.202Z,3.43
2018-09-12T18:17:06.774Z,4.93
2018-09-12T18:19:35.273Z,4.50
2018-09-12T18:22:03.861Z,7.00
2018-09-12T18:24:33.468Z,5.67
2018-09-12T18:27:02.128Z,3.03
2018-09-12T18:29:30.827Z,4.20
2018-09-12T18:31:59.442Z,7.40
2018-09-12T18:34:28.074Z,1.97
2018-09-12T18:36:57.190Z,3.27
2018-09-12T18:39:26.442Z,9.80
2018-09-12T18:41:55.577Z,2.73
2018-09-12T18:44:25.050Z,10.57
2018-09-12T18:46:54.883Z,2.93
2018-09-12T18:49:24.901Z,6.23
2018-09-12T18:51:55.559Z,7.60
2018-09-12T18:54:25.953Z,3.20
2018-09-12T18:56:56.722Z,3.20
2018-09-12T18:59:26.691Z,5.10
2018-09-12T19:01:56.862Z,12.53
2018-09-12T19:04:27.187Z,2.70
2018-09-12T19:06:57.441Z,11.43
2018-09-12T19:09:28.041Z,4.00
2018-09-12T19:11:58.005Z,8.33
2018-09-12T19:14:28.288Z,7.10
2018-09-12T19:16:58.507Z,5.20
2018-09-12T19:19:28.832Z,3.10
2018-09-12T19:21:59.250Z,2.87
2018-09-12T19:24:29.484Z,6.10
2018-09-12T19:26:59.804Z,5.97
2018-09-12T19:29:29.940Z,4.17
2018-09-12T19:32:00.001Z,5.17
2018-09-12T19:34:30.172Z,6.27
2018-09-12T19:37:00.476Z,7.13
2018-09-12T19:39:30.413Z,4.17
2018-09-12T19:42:00.058Z,6.83
2018-09-12T19:44:29.486Z,4.60
2018-09-12T19:46:58.494Z,3.93
2018-09-12T19:49:27.725Z,5.13
2018-09-12T19:51:56.379Z,4.93
2018-09-12T19:54:24.886Z,4.40
2018-09-12T19:56:53.373Z,4.20
2018-09-12T19:59:21.925Z,2.97
2018-09-12T20:01:50.499Z,6.53
2018-09-12T20:04:18.954Z,9.23
2018-09-12T20:06:47.412Z,3.63
2018-09-12T20:09:15.893Z,4.23
2018-09-12T20:11:44.507Z,5.90
2018-09-12T20:14:13.121Z,2.00
2018-09-12T20:16:41.569Z,6.70
2018-09-12T20:19:10.122Z,3.23
2018-09-12T20:21:38.742Z,13.60
2018-09-12T20:24:07.907Z,7.90
2018-09-12T20:26:36.449Z,5.53
2018-09-12T20:29:04.945Z,4.10
2018-09-12T20:31:33.490Z,4.07
2018-09-12T20:34:02.045Z,3.83
2018-09-12T20:36:30.637Z,4.40
2018-09-12T20:38:59.134Z,6.10
2018-09-12T20:41:28.159Z,1.63
2018-09-12T20:43:56.622Z,5.00
2018-09-12T20:46:25.091Z,6.17
2018-09-12T20:48:53.673Z,5.43
2018-09-12T20:51:22.856Z,5.23
2018-09-12T20:53:51.381Z,3.27
2018-09-12T20:56:19.906Z,7.47
2018-09-12T20:58:48.464Z,6.23
2018-09-12T21:01:16.941Z,2.10
2018-09-12T21:03:46.093Z,3.83
2018-09-12T21:06:14.573Z,2.10
2018-09-12T21:08:43.056Z,3.20
2018-09-12T21:11:11.621Z,4.07
2018-09-12T21:13:40.120Z,7.53
2018-09-12T21:16:08.629Z,8.20
2018-09-12T21:18:37.214Z,3.70
2018-09-12T21:21:05.970Z,3.67
2018-09-12T21:23:34.501Z,4.10
2018-09-12T21:26:02.980Z,4.17
2018-09-12T21:28:31.450Z,3.43
2018-09-12T21:31:00.048Z,4.03
2018-09-12T21:33:28.682Z,3.63
2018-09-12T21:35:57.231Z,5.83
2018-09-12T21:38:25.718Z,4.50
2018-09-12T21:40:54.346Z,4.33
2018-09-12T21:43:22.953Z,7.83
2018-09-12T21:45:51.445Z,3.70
2018-09-12T21:48:19.951Z,6.07
2018-09-12T21:50:48.485Z,7.17
2018-09-12T21:53:16.964Z,4.20
2018-09-12T21:55:45.485Z,4.50
2018-09-12T21:58:14.047Z,12.03
2018-09-12T22:00:42.560Z,9.10
2018-09-12T22:03:11.001Z,6.20
2018-09-12T22:05:39.483Z,4.87
2018-09-12T22:08:08.027Z,5.17
2018-09-12T22:10:37.017Z,2.77
2018-09-12T22:13:05.500Z,7.27
2018-09-12T22:15:34.042Z,4.43
2018-09-12T22:18:02.539Z,7.17
2018-09-12T22:20:31.002Z,8.03
2018-09-12T22:22:59.601Z,9.37
2018-09-12T22:25:28.189Z,6.00
2018-09-12T22:27:56.701Z,4.20
2018-09-12T22:30:25.266Z,5.33
2018-09-12T22:32:53.843Z,9.53
2018-09-12T22:35:22.332Z,4.97
2018-09-12T22:37:50.841Z,9.50
2018-09-12T22:40:19.535Z,7.27
2018-09-12T22:42:48.145Z,7.13
2018-09-12T22:45:17.465Z,13.73
2018-09-12T22:47:46.221Z,10.03
2018-09-12T22:50:14.715Z,15.80
2018-09-12T22:52:43.937Z,7.13
2018-09-12T22:55:12.532Z,7.43
2018-09-12T22:57:41.114Z,11.40
2018-09-12T23:00:10.029Z,5.80
2018-09-12T23:02:38.509Z,9.80
2018-09-12T23:05:07.334Z,4.67
2018-09-12T23:07:35.798Z,10.70
2018-09-12T23:10:04.519Z,8.10
2018-09-12T23:12:33.087Z,5.93
2018-09-12T23:15:01.606Z,7.73
2018-09-12T23:17:30.308Z,8.70
2018-09-12T23:19:58.805Z,11.73
2018-09-12T23:22:28.025Z,6.10
2018-09-12T23:24:56.544Z,6.33
2018-09-12T23:27:25.011Z,11.73
2018-09-12T23:29:53.534Z,7.33
2018-09-12T23:32:22.126Z,8.20
2018-09-12T23:34:50.732Z,7.30
2018-09-12T23:37:19.282Z,8.57
2018-09-12T23:39:47.885Z,9.83
2018-09-12T23:42:16.510Z,6.83
2018-09-12T23:44:45.006Z,10.50
2018-09-12T23:47:13.483Z,7.43
2018-09-12T23:49:41.998Z,9.10
2018-09-12T23:52:10.629Z,8.23
2018-09-12T23:54:39.627Z,7.37
2018-09-12T23:57:08.171Z,13.83
2018-09-12T23:59:36.743Z,9.43
